sensor_id;sensor_type;location;lat;lon;timestamp;P1;durP1;ratioP1;P2;durP2;ratioP2
23472;SDS011;11909;52.516;13.564;2023-10-19T00:00:00;20.40;;;13.82;;
23472;SDS011;11909;52.516;13.564;2023-10-19T00:02:46;21.95;;;14.15;;
23472;SDS011;11909;52.516;13.564;2023-10-19T00:05:18;21.73;;;13.63;;
23472;SDS011;11909;52.516;13.564;2023-10-19T00:07:46;20.30;;;13.13;;
23472;SDS011;11909;52.516;13.564;2023-10-19T00:10:14;19.30;;;14.02;;
23472;SDS011;11909;52.516;13.564;2023-10-19T00:12:43;21.05;;;13.73;;
23472;SDS011;11909;52.516;13.564;2023-10-19T00:15:12;25.55;;;14.43;;
23472;SDS011;11909;52.516;13.564;2023-10-19T00:17:40;18.58;;;13.50;;
23472;SDS011;11909;52.516;13.564;2023-10-19T00:20:11;18.67;;;13.43;;
23472;SDS011;11909;52.516;13.564;2023-10-19T00:23:17;18.17;;;13.35;;
23472;SDS011;11909;52.516;13.564;2023-10-19T00:25:45;23.58;;;14.45;;
23472;SDS011;11909;52.516;13.564;2023-10-19T00:28:17;21.15;;;14.40;;
23472;SDS011;11909;52.516;13.564;2023-10-19T00:30:47;21.45;;;13.77;;
23472;SDS011;11909;52.516;13.564;2023-10-19T00:33:19;20.52;;;14.38;;
23472;SDS011;11909;52.516;13.564;2023-10-19T00:35:48;20.17;;;13.90;;
23472;SDS011;11909;52.516;13.564;2023-10-19T00:38:26;21.40;;;14.77;;
23472;SDS011;11909;52.516;13.564;2023-10-19T00:41:08;24.13;;;14.93;;
23472;SDS011;11909;52.516;13.564;2023-10-19T00:43:40;26.38;;;14.93;;
23472;SDS011;11909;52.516;13.564;2023-10-19T00:46:14;21.40;;;14.32;;
23472;SDS011;11909;52.516;13.564;2023-10-19T00:48:52;21.70;;;14.68;;
23472;SDS011;11909;52.516;13.564;2023-10-19T00:51:24;20.80;;;14.30;;
23472;SDS011;11909;52.516;13.564;2023-10-19T00:54:04;21.17;;;14.77;;
23472;SDS011;11909;52.516;13.564;2023-10-19T00:56:37;24.58;;;15.10;;
23472;SDS011;11909;52.516;13.564;2023-10-19T01:01:42;19.80;;;13.90;;
23472;SDS011;11909;52.516;13.564;2023-10-19T01:04:12;23.98;;;14.88;;
23472;SDS011;11909;52.516;13.564;2023-10-19T01:06:47;24.73;;;14.45;;
23472;SDS011;11909;52.516;13.564;2023-10-19T01:09:27;22.17;;;15.00;;
23472;SDS011;11909;52.516;13.564;2023-10-19T01:11:55;24.25;;;15.77;;
23472;SDS011;11909;52.516;13.564;2023-10-19T01:14:27;23.42;;;15.15;;
23472;SDS011;11909;52.516;13.564;2023-10-19T01:16:58;20.63;;;15.15;;
23472;SDS011;11909;52.516;13.564;2023-10-19T01:19:27;25.08;;;15.50;;
23472;SDS011;11909;52.516;13.564;2023-10-19T01:21:54;23.45;;;16.35;;
23472;SDS011;11909;52.516;13.564;2023-10-19T01:24:30;26.25;;;16.30;;
23472;SDS011;11909;52.516;13.564;2023-10-19T01:27:06;23.92;;;16.08;;
23472;SDS011;11909;52.516;13.564;2023-10-19T01:29:37;26.40;;;15.27;;
23472;SDS011;11909;52.516;13.564;2023-10-19T01:32:06;23.73;;;15.77;;
23472;SDS011;11909;52.516;13.564;2023-10-19T01:34:35;23.00;;;16.00;;
23472;SDS011;11909;52.516;13.564;2023-10-19T01:37:03;22.15;;;14.43;;
23472;SDS011;11909;52.516;13.564;2023-10-19T01:39:33;23.13;;;14.60;;
23472;SDS011;11909;52.516;13.564;2023-10-19T01:42:03;25.08;;;15.07;;
23472;SDS011;11909;52.516;13.564;2023-10-19T01:44:33;23.48;;;15.95;;
23472;SDS011;11909;52.516;13.564;2023-10-19T01:47:02;27.65;;;16.33;;
23472;SDS011;11909;52.516;13.564;2023-10-19T01:49:32;24.80;;;15.55;;
23472;SDS011;11909;52.516;13.564;2023-10-19T01:51:59;25.02;;;14.85;;
23472;SDS011;11909;52.516;13.564;2023-10-19T01:54:27;25.55;;;15.93;;
23472;SDS011;11909;52.516;13.564;2023-10-19T01:56:56;20.92;;;14.93;;
23472;SDS011;11909;52.516;13.564;2023-10-19T01:59:24;20.48;;;14.57;;
23472;SDS011;11909;52.516;13.564;2023-10-19T02:01:54;22.65;;;15.73;;
23472;SDS011;11909;52.516;13.564;2023-10-19T02:04:23;19.97;;;14.40;;
23472;SDS011;11909;52.516;13.564;2023-10-19T02:06:52;25.17;;;15.15;;
23472;SDS011;11909;52.516;13.564;2023-10-19T02:09:20;21.63;;;14.60;;
23472;SDS011;11909;52.516;13.564;2023-10-19T02:11:53;22.92;;;14.57;;
23472;SDS011;11909;52.516;13.564;2023-10-19T02:14:25;24.10;;;16.63;;
23472;SDS011;11909;52.516;13.564;2023-10-19T02:16:53;29.48;;;15.75;;
23472;SDS011;11909;52.516;13.564;2023-10-19T02:19:23;26.23;;;15.25;;
23472;SDS011;11909;52.516;13.564;2023-10-19T02:21:52;24.33;;;16.02;;
23472;SDS011;11909;52.516;13.564;2023-10-19T02:24:21;27.95;;;16.67;;
23472;SDS011;11909;52.516;13.564;2023-10-19T02:26:49;23.10;;;15.98;;
23472;SDS011;11909;52.516;13.564;2023-10-19T02:29:18;22.92;;;15.52;;
23472;SDS011;11909;52.516;13.564;2023-10-19T02:31:47;22.50;;;15.55;;
23472;SDS011;11909;52.516;13.564;2023-10-19T02:34:15;26.73;;;16.02;;
23472;SDS011;11909;52.516;13.564;2023-10-19T02:36:43;24.33;;;16.13;;
23472;SDS011;11909;52.516;13.564;2023-10-19T02:39:14;24.08;;;16.38;;
23472;SDS011;11909;52.516;13.564;2023-10-19T02:41:42;25.40;;;15.85;;
23472;SDS011;11909;52.516;13.564;2023-10-19T02:44:12;22.40;;;15.30;;
23472;SDS011;11909;52.516;13.564;2023-10-19T02:46:48;24.50;;;15.65;;
23472;SDS011;11909;52.516;13.564;2023-10-19T02:49:19;23.70;;;15.02;;
23472;SDS011;11909;52.516;13.564;2023-10-19T02:51:48;24.33;;;15.07;;
23472;SDS011;11909;52.516;13.564;2023-10-19T02:54:18;25.00;;;16.47;;
23472;SDS011;11909;52.516;13.564;2023-10-19T02:56:52;28.13;;;15.75;;
23472;SDS011;11909;52.516;13.564;2023-10-19T02:59:20;23.88;;;16.50;;
23472;SDS011;11909;52.516;13.564;2023-10-19T03:01:51;28.08;;;17.73;;
23472;SDS011;11909;52.516;13.564;2023-10-19T03:04:21;25.45;;;17.02;;
23472;SDS011;11909;52.516;13.564;2023-10-19T03:06:49;23.08;;;15.70;;
23472;SDS011;11909;52.516;13.564;2023-10-19T03:09:16;23.83;;;16.45;;
23472;SDS011;11909;52.516;13.564;2023-10-19T03:11:49;24.38;;;16.38;;
23472;SDS011;11909;52.516;13.564;2023-10-19T03:14:19;25.45;;;16.33;;
23472;SDS011;11909;52.516;13.564;2023-10-19T03:16:52;27.33;;;17.02;;
23472;SDS011;11909;52.516;13.564;2023-10-19T03:19:21;25.27;;;17.42;;
23472;SDS011;11909;52.516;13.564;2023-10-19T03:21:51;28.58;;;18.25;;
23472;SDS011;11909;52.516;13.564;2023-10-19T03:24:19;23.95;;;16.42;;
23472;SDS011;11909;52.516;13.564;2023-10-19T03:27:02;24.77;;;17.27;;
23472;SDS011;11909;52.516;13.564;2023-10-19T03:29:35;34.80;;;18.77;;
23472;SDS011;11909;52.516;13.564;2023-10-19T03:32:06;24.55;;;17.13;;
23472;SDS011;11909;52.516;13.564;2023-10-19T03:34:34;26.10;;;16.75;;
23472;SDS011;11909;52.516;13.564;2023-10-19T03:37:05;26.05;;;17.73;;
23472;SDS011;11909;52.516;13.564;2023-10-19T03:39:38;26.10;;;16.95;;
23472;SDS011;11909;52.516;13.564;2023-10-19T03:42:07;24.45;;;15.38;;
23472;SDS011;11909;52.516;13.564;2023-10-19T03:44:35;27.65;;;17.65;;
23472;SDS011;11909;52.516;13.564;2023-10-19T03:47:12;24.10;;;17.27;;
23472;SDS011;11909;52.516;13.564;2023-10-19T03:49:41;29.90;;;17.77;;
23472;SDS011;11909;52.516;13.564;2023-10-19T03:52:09;28.23;;;17.13;;
23472;SDS011;11909;52.516;13.564;2023-10-19T03:54:50;25.40;;;17.02;;
23472;SDS011;11909;52.516;13.564;2023-10-19T03:57:18;24.88;;;16.73;;
23472;SDS011;11909;52.516;13.564;2023-10-19T03:59:49;28.73;;;17.58;;
23472;SDS011;11909;52.516;13.564;2023-10-19T04:02:23;26.80;;;17.73;;
23472;SDS011;11909;52.516;13.564;2023-10-19T04:04:55;25.95;;;16.77;;
23472;SDS011;11909;52.516;13.564;2023-10-19T04:07:24;25.02;;;17.45;;
23472;SDS011;11909;52.516;13.564;2023-10-19T04:09:53;25.83;;;16.83;;
23472;SDS011;11909;52.516;13.564;2023-10-19T04:12:26;28.85;;;18.13;;
23472;SDS011;11909;52.516;13.564;2023-10-19T04:14:57;28.65;;;18.40;;
23472;SDS011;11909;52.516;13.564;2023-10-19T04:17:32;27.98;;;18.02;;
23472;SDS011;11909;52.516;13.564;2023-10-19T04:20:03;28.70;;;17.65;;
23472;SDS011;11909;52.516;13.564;2023-10-19T04:22:39;27.20;;;17.27;;
23472;SDS011;11909;52.516;13.564;2023-10-19T04:25:08;24.58;;;16.13;;
23472;SDS011;11909;52.516;13.564;2023-10-19T04:27:38;25.33;;;16.15;;
23472;SDS011;11909;52.516;13.564;2023-10-19T04:30:09;26.17;;;17.75;;
23472;SDS011;11909;52.516;13.564;2023-10-19T04:32:43;33.00;;;18.20;;
23472;SDS011;11909;52.516;13.564;2023-10-19T04:35:11;28.93;;;18.93;;
23472;SDS011;11909;52.516;13.564;2023-10-19T04:37:42;33.63;;;19.80;;
23472;SDS011;11909;52.516;13.564;2023-10-19T04:43:57;30.55;;;18.55;;
23472;SDS011;11909;52.516;13.564;2023-10-19T04:46:27;31.15;;;19.90;;
23472;SDS011;11909;52.516;13.564;2023-10-19T04:48:57;26.98;;;17.50;;
23472;SDS011;11909;52.516;13.564;2023-10-19T04:51:25;29.23;;;17.90;;
23472;SDS011;11909;52.516;13.564;2023-10-19T04:53:52;27.23;;;17.73;;
23472;SDS011;11909;52.516;13.564;2023-10-19T04:56:21;29.23;;;18.67;;
23472;SDS011;11909;52.516;13.564;2023-10-19T04:58:49;30.08;;;18.50;;
23472;SDS011;11909;52.516;13.564;2023-10-19T05:01:17;30.60;;;19.42;;
23472;SDS011;11909;52.516;13.564;2023-10-19T05:03:45;27.80;;;18.50;;
23472;SDS011;11909;52.516;13.564;2023-10-19T05:06:14;26.83;;;18.98;;
23472;SDS011;11909;52.516;13.564;2023-10-19T05:08:43;29.52;;;19.45;;
23472;SDS011;11909;52.516;13.564;2023-10-19T05:11:12;26.17;;;18.65;;
23472;SDS011;11909;52.516;13.564;2023-10-19T05:13:40;27.65;;;19.35;;
23472;SDS011;11909;52.516;13.564;2023-10-19T05:16:08;30.17;;;18.77;;
23472;SDS011;11909;52.516;13.564;2023-10-19T05:18:36;28.05;;;19.05;;
23472;SDS011;11909;52.516;13.564;2023-10-19T05:21:05;30.25;;;18.88;;
23472;SDS011;11909;52.516;13.564;2023-10-19T05:23:34;28.40;;;19.33;;
23472;SDS011;11909;52.516;13.564;2023-10-19T05:26:02;32.38;;;19.83;;
23472;SDS011;11909;52.516;13.564;2023-10-19T05:28:33;31.13;;;18.88;;
23472;SDS011;11909;52.516;13.564;2023-10-19T05:31:01;30.13;;;19.88;;
23472;SDS011;11909;52.516;13.564;2023-10-19T05:33:30;28.05;;;18.90;;
23472;SDS011;11909;52.516;13.564;2023-10-19T05:35:59;26.83;;;18.95;;
23472;SDS011;11909;52.516;13.564;2023-10-19T05:38:28;32.00;;;19.80;;
23472;SDS011;11909;52.516;13.564;2023-10-19T05:40:58;27.65;;;18.98;;
23472;SDS011;11909;52.516;13.564;2023-10-19T05:43:26;31.90;;;19.65;;
23472;SDS011;11909;52.516;13.564;2023-10-19T05:45:55;31.15;;;20.10;;
23472;SDS011;11909;52.516;13.564;2023-10-19T05:48:23;30.35;;;19.88;;
23472;SDS011;11909;52.516;13.564;2023-10-19T05:50:51;28.45;;;19.70;;
23472;SDS011;11909;52.516;13.564;2023-10-19T05:53:20;31.15;;;20.85;;
23472;SDS011;11909;52.516;13.564;2023-10-19T05:55:48;32.88;;;20.35;;
23472;SDS011;11909;52.516;13.564;2023-10-19T05:58:18;30.02;;;18.85;;
23472;SDS011;11909;52.516;13.564;2023-10-19T06:00:46;34.13;;;20.73;;
23472;SDS011;11909;52.516;13.564;2023-10-19T06:03:16;30.65;;;20.13;;
23472;SDS011;11909;52.516;13.564;2023-10-19T06:05:44;35.17;;;21.45;;
23472;SDS011;11909;52.516;13.564;2023-10-19T06:08:11;33.20;;;21.35;;
23472;SDS011;11909;52.516;13.564;2023-10-19T06:10:40;31.30;;;20.48;;
23472;SDS011;11909;52.516;13.564;2023-10-19T06:13:09;32.47;;;19.90;;
23472;SDS011;11909;52.516;13.564;2023-10-19T06:15:38;33.78;;;20.92;;
23472;SDS011;11909;52.516;13.564;2023-10-19T06:18:06;30.92;;;20.15;;
23472;SDS011;11909;52.516;13.564;2023-10-19T06:20:34;34.05;;;20.48;;
23472;SDS011;11909;52.516;13.564;2023-10-19T06:23:02;31.83;;;20.65;;
23472;SDS011;11909;52.516;13.564;2023-10-19T06:25:33;31.07;;;20.70;;
23472;SDS011;11909;52.516;13.564;2023-10-19T06:28:02;34.30;;;22.08;;
23472;SDS011;11909;52.516;13.564;2023-10-19T06:30:30;31.70;;;20.45;;
23472;SDS011;11909;52.516;13.564;2023-10-19T06:33:00;29.77;;;20.80;;
23472;SDS011;11909;52.516;13.564;2023-10-19T06:35:29;33.13;;;21.58;;
23472;SDS011;11909;52.516;13.564;2023-10-19T06:37:59;30.77;;;22.38;;
23472;SDS011;11909;52.516;13.564;2023-10-19T06:40:30;33.92;;;21.75;;
23472;SDS011;11909;52.516;13.564;2023-10-19T06:42:59;32.50;;;21.15;;
23472;SDS011;11909;52.516;13.564;2023-10-19T06:45:29;35.05;;;22.30;;
23472;SDS011;11909;52.516;13.564;2023-10-19T06:47:57;32.83;;;21.27;;
23472;SDS011;11909;52.516;13.564;2023-10-19T06:50:28;36.65;;;21.85;;
23472;SDS011;11909;52.516;13.564;2023-10-19T06:52:56;33.95;;;22.45;;
23472;SDS011;11909;52.516;13.564;2023-10-19T06:55:24;32.97;;;20.77;;
23472;SDS011;11909;52.516;13.564;2023-10-19T06:57:54;33.42;;;22.25;;
23472;SDS011;11909;52.516;13.564;2023-10-19T07:00:23;32.95;;;20.52;;
23472;SDS011;11909;52.516;13.564;2023-10-19T07:02:54;36.15;;;21.83;;
23472;SDS011;11909;52.516;13.564;2023-10-19T07:05:23;31.25;;;20.58;;
23472;SDS011;11909;52.516;13.564;2023-10-19T07:07:53;36.55;;;21.70;;
23472;SDS011;11909;52.516;13.564;2023-10-19T07:10:23;38.83;;;21.23;;
23472;SDS011;11909;52.516;13.564;2023-10-19T07:12:52;35.47;;;21.25;;
23472;SDS011;11909;52.516;13.564;2023-10-19T07:15:20;32.05;;;20.05;;
23472;SDS011;11909;52.516;13.564;2023-10-19T07:17:51;31.35;;;21.23;;
23472;SDS011;11909;52.516;13.564;2023-10-19T07:20:21;32.95;;;19.55;;
23472;SDS011;11909;52.516;13.564;2023-10-19T07:22:54;36.47;;;20.50;;
23472;SDS011;11909;52.516;13.564;2023-10-19T07:25:22;38.10;;;20.93;;
23472;SDS011;11909;52.516;13.564;2023-10-19T07:27:52;32.78;;;21.70;;
23472;SDS011;11909;52.516;13.564;2023-10-19T07:30:21;33.47;;;20.58;;
23472;SDS011;11909;52.516;13.564;2023-10-19T07:32:53;30.52;;;20.42;;
23472;SDS011;11909;52.516;13.564;2023-10-19T07:35:25;31.98;;;20.38;;
23472;SDS011;11909;52.516;13.564;2023-10-19T07:37:55;32.35;;;20.35;;
23472;SDS011;11909;52.516;13.564;2023-10-19T07:40:23;29.73;;;20.77;;
23472;SDS011;11909;52.516;13.564;2023-10-19T07:42:52;29.60;;;20.23;;
23472;SDS011;11909;52.516;13.564;2023-10-19T07:45:21;29.13;;;19.98;;
23472;SDS011;11909;52.516;13.564;2023-10-19T07:47:49;32.85;;;19.48;;
23472;SDS011;11909;52.516;13.564;2023-10-19T07:50:17;30.45;;;19.35;;
23472;SDS011;11909;52.516;13.564;2023-10-19T07:52:45;31.48;;;20.25;;
23472;SDS011;11909;52.516;13.564;2023-10-19T07:55:16;27.58;;;19.23;;
23472;SDS011;11909;52.516;13.564;2023-10-19T07:57:45;30.67;;;19.15;;
23472;SDS011;11909;52.516;13.564;2023-10-19T08:00:13;26.42;;;18.58;;
23472;SDS011;11909;52.516;13.564;2023-10-19T08:02:41;31.05;;;19.73;;
23472;SDS011;11909;52.516;13.564;2023-10-19T08:05:12;30.42;;;19.65;;
23472;SDS011;11909;52.516;13.564;2023-10-19T08:07:41;27.65;;;18.48;;
23472;SDS011;11909;52.516;13.564;2023-10-19T08:10:10;26.38;;;18.08;;
23472;SDS011;11909;52.516;13.564;2023-10-19T08:12:41;31.58;;;19.88;;
23472;SDS011;11909;52.516;13.564;2023-10-19T08:15:09;31.33;;;19.60;;
23472;SDS011;11909;52.516;13.564;2023-10-19T08:17:38;32.83;;;19.90;;
23472;SDS011;11909;52.516;13.564;2023-10-19T08:20:07;32.08;;;19.65;;
23472;SDS011;11909;52.516;13.564;2023-10-19T08:22:38;28.48;;;18.65;;
23472;SDS011;11909;52.516;13.564;2023-10-19T08:25:06;27.73;;;18.20;;
23472;SDS011;11909;52.516;13.564;2023-10-19T08:27:39;27.50;;;18.25;;
23472;SDS011;11909;52.516;13.564;2023-10-19T08:30:11;27.60;;;18.50;;
23472;SDS011;11909;52.516;13.564;2023-10-19T08:32:40;28.27;;;18.23;;
23472;SDS011;11909;52.516;13.564;2023-10-19T08:35:08;27.95;;;18.45;;
23472;SDS011;11909;52.516;13.564;2023-10-19T08:37:37;28.13;;;19.02;;
23472;SDS011;11909;52.516;13.564;2023-10-19T08:40:06;28.50;;;19.00;;
23472;SDS011;11909;52.516;13.564;2023-10-19T08:42:41;29.83;;;19.58;;
23472;SDS011;11909;52.516;13.564;2023-10-19T08:45:12;28.58;;;18.58;;
23472;SDS011;11909;52.516;13.564;2023-10-19T08:47:40;27.65;;;18.60;;
23472;SDS011;11909;52.516;13.564;2023-10-19T08:50:17;30.10;;;19.00;;
23472;SDS011;11909;52.516;13.564;2023-10-19T08:52:50;27.55;;;17.88;;
23472;SDS011;11909;52.516;13.564;2023-10-19T08:55:21;31.33;;;19.95;;
23472;SDS011;11909;52.516;13.564;2023-10-19T08:58:10;32.85;;;18.85;;
23472;SDS011;11909;52.516;13.564;2023-10-19T09:00:42;27.52;;;19.27;;
23472;SDS011;11909;52.516;13.564;2023-10-19T09:03:14;29.63;;;19.17;;
23472;SDS011;11909;52.516;13.564;2023-10-19T09:05:44;28.65;;;18.45;;
23472;SDS011;11909;52.516;13.564;2023-10-19T09:08:14;28.27;;;18.63;;
23472;SDS011;11909;52.516;13.564;2023-10-19T09:10:44;31.42;;;18.95;;
23472;SDS011;11909;52.516;13.564;2023-10-19T09:13:14;25.15;;;17.30;;
23472;SDS011;11909;52.516;13.564;2023-10-19T09:15:46;29.00;;;17.42;;
23472;SDS011;11909;52.516;13.564;2023-10-19T09:18:16;27.83;;;18.97;;
23472;SDS011;11909;52.516;13.564;2023-10-19T09:20:46;30.00;;;19.55;;
23472;SDS011;11909;52.516;13.564;2023-10-19T09:23:20;29.52;;;20.05;;
23472;SDS011;11909;52.516;13.564;2023-10-19T09:25:49;29.70;;;20.70;;
23472;SDS011;11909;52.516;13.564;2023-10-19T09:28:20;29.48;;;19.00;;
23472;SDS011;11909;52.516;13.564;2023-10-19T09:30:50;33.40;;;19.02;;
23472;SDS011;11909;52.516;13.564;2023-10-19T09:33:20;29.02;;;18.80;;
23472;SDS011;11909;52.516;13.564;2023-10-19T09:35:50;29.45;;;19.85;;
23472;SDS011;11909;52.516;13.564;2023-10-19T09:38:19;27.10;;;18.98;;
23472;SDS011;11909;52.516;13.564;2023-10-19T09:40:48;26.60;;;17.33;;
23472;SDS011;11909;52.516;13.564;2023-10-19T09:43:21;29.25;;;18.52;;
23472;SDS011;11909;52.516;13.564;2023-10-19T09:45:57;25.75;;;17.92;;
23472;SDS011;11909;52.516;13.564;2023-10-19T09:48:28;27.70;;;18.55;;
23472;SDS011;11909;52.516;13.564;2023-10-19T09:51:02;45.28;;;27.02;;
23472;SDS011;11909;52.516;13.564;2023-10-19T09:53:31;40.95;;;25.67;;
23472;SDS011;11909;52.516;13.564;2023-10-19T09:55:59;29.33;;;19.90;;
23472;SDS011;11909;52.516;13.564;2023-10-19T09:58:29;30.17;;;18.58;;
23472;SDS011;11909;52.516;13.564;2023-10-19T10:01:04;30.17;;;19.10;;
23472;SDS011;11909;52.516;13.564;2023-10-19T10:03:41;31.60;;;18.75;;
23472;SDS011;11909;52.516;13.564;2023-10-19T10:06:10;28.10;;;17.73;;
23472;SDS011;11909;52.516;13.564;2023-10-19T10:08:41;30.70;;;18.27;;
23472;SDS011;11909;52.516;13.564;2023-10-19T10:11:13;28.33;;;18.90;;
23472;SDS011;11909;52.516;13.564;2023-10-19T10:13:45;28.05;;;17.73;;
23472;SDS011;11909;52.516;13.564;2023-10-19T10:16:18;27.20;;;18.35;;
23472;SDS011;11909;52.516;13.564;2023-10-19T10:18:47;40.60;;;25.55;;
23472;SDS011;11909;52.516;13.564;2023-10-19T10:21:17;45.20;;;27.42;;
23472;SDS011;11909;52.516;13.564;2023-10-19T10:23:48;33.25;;;20.83;;
23472;SDS011;11909;52.516;13.564;2023-10-19T10:26:20;27.08;;;18.67;;
23472;SDS011;11909;52.516;13.564;2023-10-19T10:29:11;28.17;;;18.40;;
23472;SDS011;11909;52.516;13.564;2023-10-19T10:31:41;25.92;;;17.02;;
23472;SDS011;11909;52.516;13.564;2023-10-19T10:34:10;25.83;;;16.98;;
23472;SDS011;11909;52.516;13.564;2023-10-19T10:36:57;28.92;;;18.20;;
23472;SDS011;11909;52.516;13.564;2023-10-19T10:39:27;27.30;;;18.13;;
23472;SDS011;11909;52.516;13.564;2023-10-19T10:41:56;26.60;;;18.27;;
23472;SDS011;11909;52.516;13.564;2023-10-19T10:44:39;27.08;;;18.45;;
23472;SDS011;11909;52.516;13.564;2023-10-19T10:47:08;30.15;;;19.05;;
23472;SDS011;11909;52.516;13.564;2023-10-19T10:49:47;28.08;;;17.80;;
23472;SDS011;11909;52.516;13.564;2023-10-19T10:52:28;30.70;;;19.23;;
23472;SDS011;11909;52.516;13.564;2023-10-19T10:54:59;52.50;;;32.17;;
23472;SDS011;11909;52.516;13.564;2023-10-19T10:57:38;67.43;;;40.05;;
23472;SDS011;11909;52.516;13.564;2023-10-19T11:00:09;50.80;;;31.23;;
23472;SDS011;11909;52.516;13.564;2023-10-19T11:02:42;28.95;;;20.52;;
23472;SDS011;11909;52.516;13.564;2023-10-19T11:05:12;27.25;;;18.25;;
23472;SDS011;11909;52.516;13.564;2023-10-19T11:10:31;29.13;;;19.48;;
23472;SDS011;11909;52.516;13.564;2023-10-19T11:13:00;30.40;;;19.17;;
23472;SDS011;11909;52.516;13.564;2023-10-19T11:15:30;28.38;;;18.75;;
23472;SDS011;11909;52.516;13.564;2023-10-19T11:17:59;32.08;;;20.35;;
23472;SDS011;11909;52.516;13.564;2023-10-19T11:20:28;32.45;;;18.73;;
23472;SDS011;11909;52.516;13.564;2023-10-19T11:22:57;31.20;;;20.02;;
23472;SDS011;11909;52.516;13.564;2023-10-19T11:25:27;32.67;;;20.35;;
23472;SDS011;11909;52.516;13.564;2023-10-19T11:27:56;34.92;;;24.05;;
23472;SDS011;11909;52.516;13.564;2023-10-19T11:30:25;53.53;;;33.55;;
23472;SDS011;11909;52.516;13.564;2023-10-19T11:32:55;38.42;;;23.25;;
23472;SDS011;11909;52.516;13.564;2023-10-19T11:35:24;30.15;;;21.75;;
23472;SDS011;11909;52.516;13.564;2023-10-19T11:37:56;33.40;;;19.70;;
23472;SDS011;11909;52.516;13.564;2023-10-19T11:40:25;33.75;;;20.98;;
23472;SDS011;11909;52.516;13.564;2023-10-19T11:42:54;32.30;;;22.85;;
23472;SDS011;11909;52.516;13.564;2023-10-19T11:45:23;33.08;;;22.23;;
23472;SDS011;11909;52.516;13.564;2023-10-19T11:47:51;29.55;;;19.88;;
23472;SDS011;11909;52.516;13.564;2023-10-19T11:50:22;26.80;;;19.92;;
23472;SDS011;11909;52.516;13.564;2023-10-19T11:52:51;33.55;;;23.55;;
23472;SDS011;11909;52.516;13.564;2023-10-19T11:55:19;32.58;;;21.92;;
23472;SDS011;11909;52.516;13.564;2023-10-19T11:57:48;31.77;;;22.05;;
23472;SDS011;11909;52.516;13.564;2023-10-19T12:00:16;30.77;;;21.13;;
23472;SDS011;11909;52.516;13.564;2023-10-19T12:02:48;28.88;;;20.60;;
23472;SDS011;11909;52.516;13.564;2023-10-19T12:05:18;32.42;;;22.45;;
23472;SDS011;11909;52.516;13.564;2023-10-19T12:07:48;27.58;;;20.08;;
23472;SDS011;11909;52.516;13.564;2023-10-19T12:10:16;28.90;;;21.07;;
23472;SDS011;11909;52.516;13.564;2023-10-19T12:12:46;33.03;;;22.73;;
23472;SDS011;11909;52.516;13.564;2023-10-19T12:15:27;31.65;;;21.52;;
23472;SDS011;11909;52.516;13.564;2023-10-19T12:17:55;33.67;;;20.90;;
23472;SDS011;11909;52.516;13.564;2023-10-19T12:20:23;35.45;;;24.38;;
23472;SDS011;11909;52.516;13.564;2023-10-19T12:22:54;35.10;;;21.60;;
23472;SDS011;11909;52.516;13.564;2023-10-19T12:25:22;31.08;;;20.40;;
23472;SDS011;11909;52.516;13.564;2023-10-19T12:28:05;31.90;;;20.95;;
23472;SDS011;11909;52.516;13.564;2023-10-19T12:30:33;31.58;;;21.10;;
23472;SDS011;11909;52.516;13.564;2023-10-19T12:33:04;34.22;;;21.95;;
23472;SDS011;11909;52.516;13.564;2023-10-19T12:35:34;39.55;;;23.08;;
23472;SDS011;11909;52.516;13.564;2023-10-19T12:38:12;32.95;;;22.58;;
23472;SDS011;11909;52.516;13.564;2023-10-19T12:40:43;35.10;;;22.40;;
23472;SDS011;11909;52.516;13.564;2023-10-19T12:43:12;35.30;;;22.20;;
23472;SDS011;11909;52.516;13.564;2023-10-19T12:45:41;66.20;;;40.17;;
23472;SDS011;11909;52.516;13.564;2023-10-19T12:48:10;41.53;;;27.37;;
23472;SDS011;11909;52.516;13.564;2023-10-19T12:50:38;34.17;;;23.30;;
23472;SDS011;11909;52.516;13.564;2023-10-19T12:53:07;34.83;;;24.98;;
23472;SDS011;11909;52.516;13.564;2023-10-19T12:55:37;39.85;;;23.48;;
23472;SDS011;11909;52.516;13.564;2023-10-19T12:58:05;33.80;;;22.23;;
23472;SDS011;11909;52.516;13.564;2023-10-19T13:00:37;36.78;;;24.23;;
23472;SDS011;11909;52.516;13.564;2023-10-19T13:03:11;34.38;;;23.48;;
23472;SDS011;11909;52.516;13.564;2023-10-19T13:05:43;37.10;;;24.23;;
23472;SDS011;11909;52.516;13.564;2023-10-19T13:08:11;31.92;;;22.02;;
23472;SDS011;11909;52.516;13.564;2023-10-19T13:10:44;37.75;;;22.58;;
23472;SDS011;11909;52.516;13.564;2023-10-19T13:13:14;37.65;;;23.23;;
23472;SDS011;11909;52.516;13.564;2023-10-19T13:15:43;35.08;;;23.75;;
23472;SDS011;11909;52.516;13.564;2023-10-19T13:18:14;34.78;;;22.30;;
23472;SDS011;11909;52.516;13.564;2023-10-19T13:20:46;32.65;;;22.58;;
23472;SDS011;11909;52.516;13.564;2023-10-19T13:23:15;34.35;;;22.20;;
23472;SDS011;11909;52.516;13.564;2023-10-19T13:25:49;33.50;;;23.92;;
23472;SDS011;11909;52.516;13.564;2023-10-19T13:28:21;34.20;;;22.63;;
23472;SDS011;11909;52.516;13.564;2023-10-19T13:30:50;36.80;;;24.57;;
23472;SDS011;11909;52.516;13.564;2023-10-19T13:33:20;35.15;;;25.40;;
23472;SDS011;11909;52.516;13.564;2023-10-19T13:35:50;33.65;;;23.48;;
23472;SDS011;11909;52.516;13.564;2023-10-19T13:38:19;37.20;;;24.60;;
23472;SDS011;11909;52.516;13.564;2023-10-19T13:40:47;35.40;;;23.90;;
23472;SDS011;11909;52.516;13.564;2023-10-19T13:43:17;36.65;;;24.88;;
23472;SDS011;11909;52.516;13.564;2023-10-19T13:45:46;39.13;;;25.67;;
23472;SDS011;11909;52.516;13.564;2023-10-19T13:48:15;36.03;;;23.50;;
23472;SDS011;11909;52.516;13.564;2023-10-19T13:50:45;40.60;;;25.27;;
23472;SDS011;11909;52.516;13.564;2023-10-19T13:53:15;34.70;;;24.17;;
23472;SDS011;11909;52.516;13.564;2023-10-19T13:55:44;33.80;;;25.15;;
23472;SDS011;11909;52.516;13.564;2023-10-19T13:58:12;38.58;;;25.65;;
23472;SDS011;11909;52.516;13.564;2023-10-19T14:00:42;40.15;;;25.63;;
23472;SDS011;11909;52.516;13.564;2023-10-19T14:03:11;35.53;;;25.33;;
23472;SDS011;11909;52.516;13.564;2023-10-19T14:05:40;37.00;;;23.85;;
23472;SDS011;11909;52.516;13.564;2023-10-19T14:08:14;35.53;;;25.30;;
23472;SDS011;11909;52.516;13.564;2023-10-19T14:10:44;35.67;;;24.63;;
23472;SDS011;11909;52.516;13.564;2023-10-19T14:13:12;35.92;;;23.90;;
23472;SDS011;11909;52.516;13.564;2023-10-19T14:15:42;35.50;;;24.90;;
23472;SDS011;11909;52.516;13.564;2023-10-19T14:18:10;40.60;;;25.10;;
23472;SDS011;11909;52.516;13.564;2023-10-19T14:20:38;34.97;;;23.95;;
23472;SDS011;11909;52.516;13.564;2023-10-19T14:23:06;33.58;;;24.00;;
23472;SDS011;11909;52.516;13.564;2023-10-19T14:25:37;36.90;;;24.38;;
23472;SDS011;11909;52.516;13.564;2023-10-19T14:28:07;37.97;;;23.98;;
23472;SDS011;11909;52.516;13.564;2023-10-19T14:30:36;37.90;;;25.67;;
23472;SDS011;11909;52.516;13.564;2023-10-19T14:33:05;36.95;;;25.92;;
23472;SDS011;11909;52.516;13.564;2023-10-19T14:35:38;39.95;;;26.88;;